Time;durP1;ratioP1;P1;durP2;ratioP2;P2;SDS_P1;SDS_P2;PMS_P1;PMS_P2;Temp;Humidity;BMP_temperature;BMP_pressure;BME280_temperature;BME280_humidity;BME280_pressure;Samples;Min_cycle;Max_cycle;Signal;HPM_P1;HPM_P2
2023/09/15 00:00:11;;;;;;;17.10;9.88;;;;;;;21.35;77.07;95344.72;5067816;28;20812;-78
2023/09/15 00:02:36;;;;;;;14.05;10.02;;;;;;;21.38;76.78;95345.00;5060102;28;20315;-79
2023/09/15 00:05:02;;;;;;;17.63;10.48;;;;;;;21.49;76.73;95338.66;5076860;28;20315;-78
2023/09/15 00:07:29;;;;;;;17.77;10.73;;;;;;;21.31;77.52;95340.94;5049711;28;20239;-78
2023/09/15 00:09:55;;;;;;;18.33;10.73;;;;;;;21.58;75.89;95354.19;5045522;28;20315;-78
2023/09/15 00:12:20;;;;;;;16.73;10.25;;;;;;;21.63;75.21;95346.22;5065361;28;20233;-78
2023/09/15 00:14:46;;;;;;;18.45;10.38;;;;;;;21.67;75.14;95358.75;5040538;28;20240;-77
2023/09/15 00:17:12;;;;;;;17.60;10.85;;;;;;;21.70;74.87;95352.13;5059730;28;20225;-78
2023/09/15 00:19:40;;;;;;;19.25;10.70;;;;;;;21.62;75.56;95349.94;5054944;28;20235;-77
2023/09/15 00:22:05;;;;;;;18.92;10.48;;;;;;;21.59;75.33;95355.78;5070439;28;20649;-77
2023/09/15 00:24:31;;;;;;;19.33;10.70;;;;;;;21.64;74.64;95353.16;5054035;28;20228;-78
2023/09/15 00:26:56;;;;;;;19.85;10.57;;;;;;;21.69;74.67;95359.31;5071743;28;20247;-78
2023/09/15 00:29:22;;;;;;;20.92;10.65;;;;;;;21.65;75.25;95346.75;5067875;28;20252;-78
2023/09/15 00:31:47;;;;;;;20.05;10.68;;;;;;;21.64;75.08;95359.28;5052486;28;20454;-77
2023/09/15 00:34:14;;;;;;;15.80;10.20;;;;;;;21.68;74.92;95356.91;5055619;28;20224;-78
2023/09/15 00:36:40;;;;;;;19.17;10.95;;;;;;;21.55;75.48;95358.16;5053009;28;20229;-77
2023/09/15 00:39:06;;;;;;;18.88;10.50;;;;;;;21.63;74.81;95357.69;5029182;28;20225;-78
2023/09/15 00:41:31;;;;;;;15.75;11.15;;;;;;;21.62;74.68;95355.25;5070204;28;20229;-78
2023/09/15 00:43:57;;;;;;;17.40;10.98;;;;;;;21.62;74.82;95355.25;5059124;28;20529;-78
2023/09/15 00:46:22;;;;;;;18.38;10.65;;;;;;;21.63;74.66;95360.34;5052620;28;20282;-73
2023/09/15 00:48:49;;;;;;;18.42;11.15;;;;;;;21.64;74.71;95353.94;5051847;28;20631;-74
2023/09/15 00:51:16;;;;;;;19.05;11.02;;;;;;;21.65;74.55;95358.22;5066387;28;20225;-73
2023/09/15 00:53:41;;;;;;;19.50;11.10;;;;;;;21.55;75.47;95357.34;5051572;28;20262;-74
2023/09/15 00:56:08;;;;;;;16.35;10.90;;;;;;;21.52;75.35;95358.66;5062475;28;20226;-74
2023/09/15 00:58:35;;;;;;;17.08;11.07;;;;;;;21.51;75.51;95354.41;5075011;28;20248;-73
2023/09/15 01:01:04;;;;;;;16.73;11.25;;;;;;;21.49;75.26;95361.88;5051238;28;20232;-73
2023/09/15 01:03:32;;;;;;;16.40;11.05;;;;;;;21.52;75.58;95365.88;5054263;28;20224;-73
2023/09/15 01:05:58;;;;;;;15.32;11.00;;;;;;;21.52;75.36;95366.66;5055014;28;20235;-74
2023/09/15 01:08:23;;;;;;;17.77;10.65;;;;;;;21.48;75.18;95366.38;5039333;28;20229;-73
2023/09/15 01:10:49;;;;;;;16.58;10.80;;;;;;;21.43;75.58;95371.66;5047161;28;21123;-73
2023/09/15 01:13:14;;;;;;;16.48;10.98;;;;;;;21.35;75.78;95374.78;5056141;28;20275;-74
2023/09/15 01:15:58;;;;;;;18.63;11.23;;;;;;;21.39;76.09;95377.75;5055325;28;20344;-74
2023/09/15 01:18:46;;;;;;;18.83;11.38;;;;;;;21.24;76.83;95374.97;5057211;28;20674;-74
2023/09/15 01:21:15;;;;;;;17.08;11.13;;;;;;;21.20;77.09;95381.88;5057927;28;20292;-73
2023/09/15 01:24:18;;;;;;;17.20;10.90;;;;;;;20.92;78.57;95379.47;5070221;28;20625;-74
2023/09/15 01:26:43;;;;;;;15.27;11.05;;;;;;;21.00;78.59;95381.66;5065336;28;20311;-74
2023/09/15 01:29:32;;;;;;;17.75;11.60;;;;;;;21.04;78.08;95380.13;5067965;28;20762;-74
2023/09/15 01:31:57;;;;;;;15.13;11.13;;;;;;;21.12;77.62;95377.00;5060151;28;20252;-74
2023/09/15 01:34:23;;;;;;;18.33;11.50;;;;;;;21.23;76.74;95376.06;5052240;28;20701;-73
2023/09/15 01:36:50;;;;;;;18.73;11.15;;;;;;;21.22;76.52;95377.09;5050093;28;20242;-74
2023/09/15 01:39:16;;;;;;;16.88;11.15;;;;;;;21.27;76.18;95377.94;5068655;28;20232;-74
2023/09/15 01:41:41;;;;;;;17.83;10.77;;;;;;;21.24;76.67;95381.09;5053019;28;20232;-74
2023/09/15 01:44:07;;;;;;;19.00;11.27;;;;;;;21.24;76.20;95375.78;5056596;28;20233;-74
2023/09/15 01:46:32;;;;;;;17.10;11.45;;;;;;;21.06;77.58;95376.19;5038850;28;20312;-73
2023/09/15 01:48:58;;;;;;;17.70;10.98;;;;;;;21.05;77.78;95381.72;5056292;28;20231;-74
2023/09/15 01:51:24;;;;;;;19.10;11.70;;;;;;;21.10;77.35;95390.56;5064963;28;20228;-74
2023/09/15 01:53:52;;;;;;;17.73;11.98;;;;;;;20.81;78.65;95387.34;5060933;28;20286;-73
2023/09/15 01:56:18;;;;;;;19.60;11.25;;;;;;;20.77;79.24;95390.78;5058653;28;20240;-73
2023/09/15 01:58:44;;;;;;;17.13;11.35;;;;;;;20.88;78.83;95389.00;5053883;28;20266;-74
2023/09/15 02:01:09;;;;;;;18.98;11.40;;;;;;;20.86;78.74;95385.78;5052025;28;20224;-73
2023/09/15 02:03:35;;;;;;;16.92;11.73;;;;;;;20.70;79.31;95392.81;5052707;28;20239;-74
2023/09/15 02:06:04;;;;;;;17.95;11.20;;;;;;;20.65;79.85;95387.44;5035472;28;20220;-74
2023/09/15 02:08:30;;;;;;;18.02;11.40;;;;;;;20.87;78.41;95401.53;5042247;28;20256;-74
2023/09/15 02:10:56;;;;;;;16.25;11.13;;;;;;;20.99;77.59;95394.19;5050665;28;20239;-73
2023/09/15 02:13:21;;;;;;;16.77;11.80;;;;;;;20.96;77.66;95400.00;5055203;28;20263;-73
2023/09/15 02:15:46;;;;;;;21.43;12.00;;;;;;;20.96;76.79;95394.69;5036802;28;20268;-74
2023/09/15 02:18:12;;;;;;;21.25;12.18;;;;;;;20.97;77.61;95396.28;5063897;28;20243;-73
2023/09/15 02:20:37;;;;;;;17.95;11.40;;;;;;;21.00;77.30;95395.78;5048669;28;20232;-73
2023/09/15 02:23:03;;;;;;;17.30;11.50;;;;;;;21.03;77.10;95397.94;5061784;28;20245;-73
2023/09/15 02:25:34;;;;;;;17.25;11.02;;;;;;;21.04;77.17;95407.50;5069566;28;20758;-74
2023/09/15 02:27:59;;;;;;;18.00;11.48;;;;;;;21.07;76.93;95401.72;5066466;28;20844;-73
2023/09/15 02:30:25;;;;;;;18.02;11.55;;;;;;;20.96;76.98;95402.66;5067037;28;20326;-72
2023/09/15 02:32:50;;;;;;;18.40;11.98;;;;;;;20.99;77.24;95398.69;5061996;28;20628;-73
2023/09/15 02:35:16;;;;;;;14.80;11.10;;;;;;;20.89;77.71;95399.41;5047277;28;20233;-73
2023/09/15 02:37:41;;;;;;;18.83;11.52;;;;;;;20.91;77.64;95407.13;5026292;28;20260;-74
2023/09/15 02:40:08;;;;;;;16.60;11.57;;;;;;;20.93;77.52;95405.81;5032770;28;20616;-74
2023/09/15 02:42:35;;;;;;;16.87;12.00;;;;;;;20.93;77.62;95407.66;5066896;28;20235;-73
2023/09/15 02:45:01;;;;;;;18.10;11.47;;;;;;;20.91;77.63;95405.28;5049513;28;20222;-74
2023/09/15 02:47:29;;;;;;;16.15;11.68;;;;;;;20.89;77.86;95410.06;5048286;28;20297;-73
2023/09/15 02:49:54;;;;;;;17.00;11.50;;;;;;;20.94;77.59;95417.28;5044248;28;20232;-74
2023/09/15 02:52:20;;;;;;;17.63;11.50;;;;;;;20.89;77.75;95411.91;5054766;28;20232;-73
2023/09/15 02:54:48;;;;;;;17.47;11.03;;;;;;;20.83;77.96;95405.72;5065406;28;20224;-73
2023/09/15 02:57:13;;;;;;;20.43;11.80;;;;;;;20.81;78.05;95416.63;5047116;28;20228;-73
2023/09/15 02:59:38;;;;;;;19.17;11.55;;;;;;;20.77;78.33;95412.06;5038276;28;20244;-74
2023/09/15 03:02:04;;;;;;;17.20;11.55;;;;;;;20.65;78.59;95414.06;5063140;28;20229;-72
2023/09/15 03:04:29;;;;;;;17.38;11.35;;;;;;;20.58;79.29;95416.09;5063748;28;20244;-74
2023/09/15 03:06:55;;;;;;;17.23;11.63;;;;;;;20.64;79.34;95415.09;5050758;28;20650;-73
2023/09/15 03:09:20;;;;;;;18.75;11.15;;;;;;;20.71;78.72;95413.03;5048427;28;20267;-73
2023/09/15 03:11:46;;;;;;;16.97;11.30;;;;;;;20.76;78.67;95421.06;5044908;28;20221;-73
2023/09/15 03:14:12;;;;;;;18.73;11.70;;;;;;;20.72;78.50;95409.34;5032555;28;20292;-73
2023/09/15 03:16:41;;;;;;;16.17;11.23;;;;;;;20.76;78.85;95426.41;5044876;28;20236;-73
2023/09/15 03:19:07;;;;;;;14.80;11.02;;;;;;;20.71;78.81;95429.81;5033471;28;20239;-74
2023/09/15 03:21:33;;;;;;;16.20;11.33;;;;;;;20.68;79.03;95429.53;5046725;28;20232;-73
2023/09/15 03:24:00;;;;;;;19.87;11.87;;;;;;;20.67;79.00;95433.22;5055257;28;20324;-74
2023/09/15 03:26:25;;;;;;;17.42;11.45;;;;;;;20.65;78.99;95430.81;5055283;28;20253;-73
2023/09/15 03:28:50;;;;;;;18.67;11.27;;;;;;;20.69;78.91;95428.44;5065442;28;20307;-73
2023/09/15 03:31:16;;;;;;;17.98;11.05;;;;;;;20.69;78.75;95433.78;5077997;28;20220;-73
2023/09/15 03:33:42;;;;;;;16.98;11.32;;;;;;;20.61;79.30;95436.91;5031176;28;20258;-74
2023/09/15 03:36:07;;;;;;;17.02;11.70;;;;;;;20.64;78.84;95434.53;5054224;28;20311;-73
2023/09/15 03:38:33;;;;;;;20.63;11.70;;;;;;;20.63;78.74;95437.44;5050186;28;20232;-74
2023/09/15 03:41:00;;;;;;;18.08;11.43;;;;;;;20.62;78.49;95441.16;5062381;28;20241;-73
2023/09/15 03:43:25;;;;;;;19.40;11.35;;;;;;;20.55;79.00;95437.88;5064860;28;20281;-74
2023/09/15 03:45:51;;;;;;;14.68;10.68;;;;;;;20.57;78.70;95451.72;5051512;28;20252;-73
2023/09/15 03:48:17;;;;;;;18.63;11.17;;;;;;;20.69;78.18;95441.75;5049564;28;20244;-73
2023/09/15 03:50:42;;;;;;;17.57;10.63;;;;;;;20.67;78.25;95441.22;5060554;28;20221;-74
2023/09/15 03:53:09;;;;;;;17.57;10.90;;;;;;;20.63;77.98;95438.25;5071251;28;20236;-74
2023/09/15 03:55:35;;;;;;;17.80;10.85;;;;;;;20.67;77.92;95446.53;5071865;28;20248;-72
2023/09/15 03:58:02;;;;;;;15.57;10.50;;;;;;;20.64;77.56;95455.00;5045218;28;20233;-73
2023/09/15 04:00:28;;;;;;;17.10;10.57;;;;;;;20.56;77.90;95452.78;5033076;28;20237;-73
2023/09/15 04:02:54;;;;;;;16.77;11.17;;;;;;;20.54;77.92;95455.69;5062355;28;20263;-73
2023/09/15 04:05:19;;;;;;;17.05;10.45;;;;;;;20.60;77.52;95453.91;5028410;28;20573;-73
2023/09/15 04:07:45;;;;;;;17.90;10.77;;;;;;;20.58;77.47;95458.66;5031299;28;20282;-73
2023/09/15 04:10:12;;;;;;;18.40;10.57;;;;;;;20.51;77.95;95452.72;5014984;28;20221;-78
2023/09/15 04:12:38;;;;;;;19.33;10.65;;;;;;;20.49;77.89;95460.94;5003787;28;20275;-78
2023/09/15 04:15:06;;;;;;;15.20;10.27;;;;;;;20.33;78.35;95458.34;5061734;28;20668;-77
2023/09/15 04:17:32;;;;;;;17.15;10.57;;;;;;;20.35;78.58;95464.25;5063181;28;20253;-78
2023/09/15 04:19:58;;;;;;;14.20;9.75;;;;;;;20.38;78.34;95463.72;5060737;28;20260;-77
2023/09/15 04:22:25;;;;;;;14.32;10.02;;;;;;;20.47;77.13;95470.22;5039600;28;20228;-78
2023/09/15 04:24:51;;;;;;;13.93;9.50;;;;;;;20.29;77.80;95474.00;5044221;28;20232;-78
2023/09/15 04:27:16;;;;;;;14.70;9.40;;;;;;;20.27;77.98;95478.75;5067931;28;20900;-78
2023/09/15 04:29:53;;;;;;;16.50;9.70;;;;;;;20.30;78.04;95480.91;5053237;28;20611;-77
2023/09/15 04:32:18;;;;;;;13.85;10.05;;;;;;;20.32;78.47;95483.34;5053125;28;20227;-78
2023/09/15 04:34:44;;;;;;;16.85;10.02;;;;;;;20.28;78.68;95476.88;5036161;28;20212;-78
2023/09/15 04:37:09;;;;;;;14.40;9.68;;;;;;;20.32;78.12;95484.16;5043778;28;20588;-78
2023/09/15 04:39:35;;;;;;;17.17;9.85;;;;;;;20.33;78.33;95487.59;5039136;28;20796;-79
2023/09/15 04:42:00;;;;;;;15.80;9.68;;;;;;;20.30;78.25;95490.75;5044987;28;20225;-78
2023/09/15 04:44:26;;;;;;;17.42;10.25;;;;;;;20.23;78.61;95488.25;5042959;28;20230;-77
2023/09/15 04:46:51;;;;;;;16.20;9.32;;;;;;;20.25;78.74;95488.84;5068706;28;20224;-78
2023/09/15 04:49:17;;;;;;;16.65;9.55;;;;;;;20.29;78.60;95489.13;5062686;28;20234;-77
2023/09/15 04:51:42;;;;;;;18.50;10.02;;;;;;;20.17;79.18;95484.72;5067353;28;20228;-78
2023/09/15 04:54:07;;;;;;;16.03;10.10;;;;;;;20.16;79.99;95491.06;5054080;28;20232;-78
2023/09/15 04:56:33;;;;;;;14.90;10.10;;;;;;;20.13;79.59;95493.41;5045713;28;20243;-78
2023/09/15 04:58:59;;;;;;;15.68;9.85;;;;;;;20.31;78.71;95495.00;5067166;28;20243;-78
2023/09/15 05:01:24;;;;;;;15.93;9.60;;;;;;;20.34;78.75;95495.34;5070115;28;20238;-78
2023/09/15 05:03:50;;;;;;;16.13;10.03;;;;;;;20.40;78.61;95496.19;5053289;28;20237;-78
2023/09/15 05:06:16;;;;;;;17.77;9.63;;;;;;;20.45;78.46;95490.94;5054057;28;20282;-78
2023/09/15 05:08:42;;;;;;;14.73;9.40;;;;;;;20.52;78.25;95491.56;5070266;28;20631;-79
2023/09/15 05:11:08;;;;;;;18.17;9.80;;;;;;;20.52;78.26;95496.88;5041055;28;20240;-79
2023/09/15 05:13:34;;;;;;;16.77;9.63;;;;;;;20.47;79.01;95502.13;5047074;28;20233;-78
2023/09/15 05:16:02;;;;;;;15.63;10.10;;;;;;;20.48;78.45;95506.41;5045609;28;20324;-79
2023/09/15 05:18:28;;;;;;;16.35;9.60;;;;;;;20.48;78.73;95509.06;5066812;28;20777;-78
2023/09/15 05:20:54;;;;;;;16.52;9.77;;;;;;;20.41;78.79;95511.91;5059562;28;20319;-78
2023/09/15 05:23:20;;;;;;;16.57;9.77;;;;;;;20.47;78.96;95505.59;5039785;28;20662;-79
2023/09/15 05:25:49;;;;;;;15.70;10.10;;;;;;;20.40;79.25;95512.13;5067059;28;20290;-79
2023/09/15 05:28:15;;;;;;;14.40;9.73;;;;;;;20.44;79.43;95513.28;5049682;28;20247;-78
2023/09/15 05:30:40;;;;;;;15.85;10.13;;;;;;;20.38;79.59;95515.06;5073071;28;20225;-79
2023/09/15 05:33:08;;;;;;;16.13;10.18;;;;;;;20.51;79.06;95514.72;5073108;28;20252;-79
2023/09/15 05:35:34;;;;;;;15.32;9.85;;;;;;;20.62;78.67;95513.78;5071807;28;20246;-78
2023/09/15 05:37:59;;;;;;;17.40;10.03;;;;;;;20.63;78.74;95517.25;5066496;28;20241;-78
2023/09/15 05:40:25;;;;;;;16.30;10.17;;;;;;;20.62;78.39;95519.09;5050589;28;20236;-79
2023/09/15 05:42:53;;;;;;;23.03;10.47;;;;;;;20.55;78.58;95515.81;5049882;28;20233;-78
2023/09/15 05:45:18;;;;;;;18.60;10.47;;;;;;;20.54;79.02;95514.19;5072025;28;20232;-78
2023/09/15 05:47:44;;;;;;;16.43;11.03;;;;;;;20.61;79.42;95514.81;5070030;28;20290;-78
2023/09/15 05:50:09;;;;;;;19.20;11.00;;;;;;;20.68;78.82;95519.97;5043878;28;20225;-78
2023/09/15 05:52:35;;;;;;;15.77;10.40;;;;;;;20.73;79.21;95512.03;5050010;28;20237;-78
2023/09/15 05:55:00;;;;;;;17.88;11.35;;;;;;;20.80;79.27;95518.00;5054137;28;20241;-78
2023/09/15 05:57:26;;;;;;;17.67;11.13;;;;;;;20.65;79.84;95518.63;5074766;28;20233;-79
2023/09/15 05:59:51;;;;;;;15.65;10.80;;;;;;;20.64;80.13;95519.66;5048500;28;20225;-79
2023/09/15 06:02:18;;;;;;;16.90;11.10;;;;;;;20.62;80.30;95521.75;5044728;28;20236;-78
2023/09/15 06:04:46;;;;;;;21.03;11.03;;;;;;;20.67;80.08;95524.50;5050583;28;20273;-79
2023/09/15 06:07:11;;;;;;;19.42;11.20;;;;;;;20.62;80.89;95518.28;5068380;28;20940;-78
2023/09/15 06:09:36;;;;;;;17.90;11.43;;;;;;;20.68;80.51;95522.66;5050966;28;20268;-85
2023/09/15 06:12:02;;;;;;;23.30;11.47;;;;;;;20.65;81.18;95526.59;5067639;28;20223;-84
2023/09/15 06:14:28;;;;;;;20.27;11.23;;;;;;;20.66;81.22;95524.72;5066055;28;20236;-83
2023/09/15 06:16:53;;;;;;;18.07;11.23;;;;;;;20.67;81.29;95526.34;5051730;28;20237;-74
2023/09/15 06:19:18;;;;;;;19.67;11.25;;;;;;;20.74;81.70;95517.13;5050553;28;20886;-74
2023/09/15 06:21:44;;;;;;;21.38;11.10;;;;;;;20.71;81.00;95525.59;5066656;28;20255;-74
2023/09/15 06:24:09;;;;;;;17.92;11.18;;;;;;;20.70;81.34;95523.19;5069947;28;20255;-74
2023/09/15 06:26:36;;;;;;;18.23;11.03;;;;;;;20.77;80.77;95526.47;5063624;28;20286;-77
2023/09/15 06:29:02;;;;;;;17.02;10.93;;;;;;;20.85;81.02;95531.34;5065799;28;20239;-74
2023/09/15 06:31:28;;;;;;;17.77;11.33;;;;;;;20.94;80.46;95518.41;5040045;28;20235;-74
2023/09/15 06:33:53;;;;;;;17.47;11.27;;;;;;;21.01;80.05;95525.16;5066258;28;20230;-74
2023/09/15 06:36:19;;;;;;;17.50;10.90;;;;;;;20.96;80.21;95527.75;5047399;28;20236;-74
2023/09/15 06:38:44;;;;;;;19.38;11.77;;;;;;;20.91;80.55;95527.69;5024717;28;20334;-73
2023/09/15 06:41:10;;;;;;;21.93;11.53;;;;;;;21.02;80.43;95528.59;5065165;28;20225;-74
2023/09/15 06:43:36;;;;;;;18.57;11.83;;;;;;;21.11;79.93;95522.63;5066251;28;20398;-74
2023/09/15 06:46:02;;;;;;;19.83;11.07;;;;;;;21.18;80.23;95527.78;5035974;28;20684;-74
2023/09/15 06:48:27;;;;;;;17.77;11.17;;;;;;;21.18;79.80;95520.59;5035179;28;20231;-74
2023/09/15 06:50:53;;;;;;;17.63;11.50;;;;;;;21.30;79.07;95517.78;5067983;28;20320;-74
2023/09/15 06:53:19;;;;;;;22.83;11.40;;;;;;;21.35;79.23;95518.59;5067871;28;20228;-74
2023/09/15 06:55:44;;;;;;;16.83;10.70;;;;;;;21.42;78.22;95521.09;5066480;28;20224;-74
2023/09/15 06:58:10;;;;;;;20.20;11.38;;;;;;;21.44;77.83;95516.31;5043721;28;20240;-74
2023/09/15 07:00:35;;;;;;;17.92;10.85;;;;;;;21.53;77.61;95509.47;5045023;28;20320;-74
2023/09/15 07:03:01;;;;;;;18.03;10.90;;;;;;;21.69;77.72;95515.72;5068787;28;20297;-74
2023/09/15 07:05:26;;;;;;;24.17;10.98;;;;;;;21.62;76.96;95517.78;5025782;28;20240;-74
2023/09/15 07:07:51;;;;;;;16.73;10.13;;;;;;;21.68;75.79;95516.78;5045581;28;20240;-74
2023/09/15 07:10:17;;;;;;;17.57;10.27;;;;;;;21.72;75.59;95520.53;5052169;28;20230;-74
2023/09/15 07:12:42;;;;;;;15.23;10.50;;;;;;;21.76;75.38;95513.63;5044804;28;20286;-74
2023/09/15 07:15:08;;;;;;;14.98;10.20;;;;;;;21.78;75.06;95519.53;5032954;28;20231;-74
2023/09/15 07:17:33;;;;;;;17.60;10.20;;;;;;;21.88;74.74;95516.97;5051309;28;20228;-74
2023/09/15 07:19:59;;;;;;;18.73;10.65;;;;;;;21.94;74.15;95513.31;5036767;28;20232;-74
2023/09/15 07:22:27;;;;;;;17.83;10.30;;;;;;;21.96;73.27;95513.84;5053518;28;20224;-74
2023/09/15 07:24:52;;;;;;;21.43;10.60;;;;;;;21.96;73.98;95513.84;5048159;28;20236;-74
2023/09/15 07:27:18;;;;;;;19.75;10.10;;;;;;;22.05;72.71;95507.78;5065445;28;20232;-74
2023/09/15 07:29:43;;;;;;;17.23;10.98;;;;;;;22.00;73.46;95510.41;5061663;28;20272;-74
2023/09/15 07:32:09;;;;;;;17.70;10.70;;;;;;;22.09;72.85;95518.75;5071284;28;20264;-74
2023/09/15 07:34:34;;;;;;;19.55;10.68;;;;;;;22.18;72.46;95519.06;5065054;28;20224;-73
2023/09/15 07:37:00;;;;;;;17.67;10.20;;;;;;;22.27;71.78;95522.84;5066610;28;20241;-74
2023/09/15 07:39:26;;;;;;;15.68;10.70;;;;;;;22.33;71.94;95514.63;5060160;28;20221;-74
2023/09/15 07:41:51;;;;;;;16.67;9.80;;;;;;;22.42;71.27;95517.63;5062110;28;20229;-74
2023/09/15 07:44:17;;;;;;;17.13;10.20;;;;;;;22.50;71.17;95520.59;5045839;28;20623;-74
2023/09/15 07:46:42;;;;;;;16.77;10.13;;;;;;;22.60;71.02;95523.31;5059206;28;20247;-75
2023/09/15 07:49:07;;;;;;;19.17;10.35;;;;;;;22.59;71.89;95516.34;5060283;28;20646;-75
2023/09/15 07:51:34;;;;;;;17.13;10.60;;;;;;;22.65;71.16;95518.03;5043424;28;20229;-73
2023/09/15 07:54:00;;;;;;;17.98;10.73;;;;;;;22.70;70.45;95506.56;5054353;28;20232;-73
2023/09/15 07:56:25;;;;;;;17.00;10.65;;;;;;;22.76;69.64;95514.34;5036723;28;20244;-74
2023/09/15 07:58:51;;;;;;;19.75;10.40;;;;;;;22.78;69.27;95508.75;5028880;28;20228;-75
2023/09/15 08:01:17;;;;;;;19.92;10.25;;;;;;;22.86;68.40;95521.59;5050967;28;20231;-73
2023/09/15 08:03:43;;;;;;;15.00;10.02;;;;;;;22.95;68.59;95511.22;5060646;28;20617;-75
2023/09/15 08:06:08;;;;;;;20.42;10.45;;;;;;;23.00;68.32;95513.91;5051409;28;20224;-74
2023/09/15 08:08:34;;;;;;;19.88;9.95;;;;;;;23.09;68.18;95505.13;5057808;28;20290;-74
2023/09/15 08:10:59;;;;;;;16.67;10.10;;;;;;;23.13;67.62;95502.72;5068226;28;20228;-74
2023/09/15 08:13:25;;;;;;;17.00;9.98;;;;;;;23.16;66.33;95507.53;5041126;28;20229;-74
2023/09/15 08:15:51;;;;;;;19.83;10.32;;;;;;;23.13;67.02;95506.19;5065726;28;20565;-74
2023/09/15 08:18:23;;;;;;;17.17;10.77;;;;;;;23.34;66.74;95501.69;5051502;28;20243;-74
2023/09/15 08:20:49;;;;;;;14.45;9.55;;;;;;;23.34;66.69;95499.00;5039625;28;20315;-74
2023/09/15 08:23:14;;;;;;;17.70;9.48;;;;;;;23.39;65.13;95501.72;5072070;28;20297;-74
2023/09/15 08:25:40;;;;;;;19.95;9.80;;;;;;;23.49;64.98;95493.72;5075654;28;20232;-74
2023/09/15 08:28:06;;;;;;;15.52;10.10;;;;;;;23.62;65.03;95490.53;5058768;28;20273;-78
2023/09/15 08:30:33;;;;;;;19.55;10.25;;;;;;;23.76;65.73;95496.16;5048332;28;20330;-78
2023/09/15 08:32:59;;;;;;;18.13;10.73;;;;;;;23.77;64.47;95489.72;5064580;28;20276;-78
2023/09/15 08:35:26;;;;;;;16.60;9.95;;;;;;;23.89;64.08;95484.91;5055802;28;20232;-80
2023/09/15 08:37:51;;;;;;;19.92;9.88;;;;;;;23.96;63.35;95482.75;5060358;28;20675;-79
2023/09/15 08:40:19;;;;;;;16.80;10.27;;;;;;;23.89;64.12;95482.25;5060431;28;20291;-79
2023/09/15 08:42:45;;;;;;;19.05;10.20;;;;;;;23.91;64.29;95478.22;5042200;28;20600;-79
2023/09/15 08:45:10;;;;;;;18.17;10.27;;;;;;;24.11;64.17;95480.13;5074935;28;20243;-80
2023/09/15 08:47:37;;;;;;;16.40;9.95;;;;;;;24.14;63.20;95484.94;5066769;28;20240;-79
2023/09/15 08:50:03;;;;;;;15.75;10.23;;;;;;;24.19;62.64;95471.56;5057776;28;20225;-78
2023/09/15 08:52:29;;;;;;;18.17;9.85;;;;;;;24.10;61.95;95467.78;5069994;28;20248;-79
2023/09/15 08:54:55;;;;;;;22.55;10.20;;;;;;;24.12;62.58;95467.53;5045806;28;20339;-79
2023/09/15 08:57:21;;;;;;;16.27;10.45;;;;;;;24.08;63.31;95457.38;5071338;28;20671;-79
2023/09/15 08:59:46;;;;;;;16.73;10.00;;;;;;;24.26;63.28;95457.88;5046215;28;20711;-79
2023/09/15 09:02:12;;;;;;;18.30;10.52;;;;;;;24.37;62.41;95454.91;5062017;28;20286;-79
2023/09/15 09:04:38;;;;;;;16.85;9.80;;;;;;;24.47;61.89;95454.06;5063676;28;20230;-79
2023/09/15 09:07:04;;;;;;;17.67;9.57;;;;;;;24.53;61.63;95459.13;5067535;28;20308;-80
2023/09/15 09:09:30;;;;;;;18.08;10.20;;;;;;;24.53;60.70;95461.78;5053694;28;20325;-78
2023/09/15 09:11:56;;;;;;;15.88;9.98;;;;;;;24.67;60.14;95459.34;5064976;28;20236;-79
2023/09/15 09:14:22;;;;;;;15.93;10.50;;;;;;;24.84;60.35;95457.16;5045006;28;20251;-79
2023/09/15 09:16:48;;;;;;;22.15;10.13;;;;;;;24.88;59.38;95457.41;5058546;28;20239;-78
2023/09/15 09:19:13;;;;;;;14.82;9.82;;;;;;;24.86;58.63;95455.00;5060462;28;20224;-79
2023/09/15 09:21:39;;;;;;;17.33;10.30;;;;;;;24.86;58.73;95460.38;5074860;28;20228;-79
2023/09/15 09:24:04;;;;;;;16.83;10.00;;;;;;;24.73;59.82;95460.91;5064645;28;20240;-79
2023/09/15 09:26:30;;;;;;;19.35;10.57;;;;;;;25.01;59.03;95460.28;5071009;28;20229;-78
2023/09/15 09:28:59;;;;;;;16.85;9.70;;;;;;;25.17;58.39;95455.66;5062049;28;20221;-79
2023/09/15 09:31:25;;;;;;;14.95;10.13;;;;;;;25.24;58.56;95458.81;5054023;28;20227;-79
2023/09/15 09:33:51;;;;;;;14.75;10.38;;;;;;;25.20;58.11;95460.44;5044462;28;20323;-79
2023/09/15 09:36:17;;;;;;;18.52;10.00;;;;;;;25.28;58.14;95457.97;5063497;28;20273;-79
2023/09/15 09:38:46;;;;;;;16.30;10.45;;;;;;;25.32;58.51;95458.22;5050316;28;20259;-81
2023/09/15 09:41:12;;;;;;;16.80;10.45;;;;;;;25.27;58.71;95459.03;5050239;28;20230;-79
2023/09/15 09:43:38;;;;;;;16.33;11.00;;;;;;;25.37;58.27;95467.03;5039211;28;20253;-81
2023/09/15 09:46:05;;;;;;;15.73;10.48;;;;;;;25.36;58.03;95464.63;5058610;28;20223;-77
2023/09/15 09:48:32;;;;;;;17.45;10.55;;;;;;;25.40;57.97;95455.75;5038122;28;20343;-78
2023/09/15 09:50:58;;;;;;;18.05;10.85;;;;;;;25.58;58.22;95461.56;5063676;28;20228;-79
2023/09/15 09:53:33;;;;;;;19.42;10.35;;;;;;;25.43;57.52;95457.84;5055897;28;20296;-78
2023/09/15 09:56:03;;;;;;;18.45;10.77;;;;;;;25.61;55.96;95452.94;5053146;28;20263;-78
2023/09/15 09:58:28;;;;;;;19.45;10.48;;;;;;;25.57;56.44;95450.03;5039154;28;20240;-79
2023/09/15 10:00:54;;;;;;;14.98;9.65;;;;;;;25.62;57.00;95447.31;5056265;28;20228;-78
2023/09/15 10:03:21;;;;;;;16.30;10.43;;;;;;;25.71;56.67;95448.31;5072160;28;20244;-78
2023/09/15 10:05:47;;;;;;;16.17;10.00;;;;;;;25.85;55.73;95448.44;5067706;28;20282;-78
2023/09/15 10:08:12;;;;;;;17.38;10.15;;;;;;;25.92;55.46;95448.91;5050894;28;20229;-78
2023/09/15 10:10:41;;;;;;;15.80;9.30;;;;;;;25.99;55.39;95446.69;5049253;28;20232;-79
2023/09/15 10:13:07;;;;;;;16.88;10.38;;;;;;;25.85;54.33;95445.75;5053303;28;20228;-80
2023/09/15 10:15:34;;;;;;;18.85;10.48;;;;;;;25.93;54.70;95458.56;5053361;28;20284;-79
2023/09/15 10:18:00;;;;;;;15.00;10.02;;;;;;;26.07;53.80;95448.78;5050935;28;20323;-79
2023/09/15 10:20:25;;;;;;;17.42;10.40;;;;;;;26.20;53.33;95444.66;5036953;28;20225;-79
2023/09/15 10:22:51;;;;;;;15.70;9.73;;;;;;;26.21;52.62;95446.25;5068239;28;20217;-79
2023/09/15 10:25:17;;;;;;;12.85;9.75;;;;;;;26.19;52.28;95443.06;5040632;28;20713;-78
2023/09/15 10:27:44;;;;;;;16.60;10.00;;;;;;;26.30;52.70;95436.47;5050797;28;20233;-78
2023/09/15 10:30:10;;;;;;;14.85;10.05;;;;;;;26.44;52.73;95443.56;5061194;28;20239;-79
2023/09/15 10:32:39;;;;;;;17.20;9.50;;;;;;;26.49;53.03;95440.84;5049620;28;20233;-79
2023/09/15 10:35:05;;;;;;;15.43;9.82;;;;;;;26.48;52.94;95438.44;5042076;28;20673;-78
2023/09/15 10:37:33;;;;;;;17.35;10.13;;;;;;;26.61;51.81;95435.84;5053627;28;21046;-79
2023/09/15 10:39:59;;;;;;;16.25;9.93;;;;;;;26.73;51.02;95432.75;5048692;28;20237;-78
2023/09/15 10:42:24;;;;;;;16.85;9.82;;;;;;;26.85;52.05;95430.47;5051978;28;20229;-78
2023/09/15 10:44:50;;;;;;;15.30;9.32;;;;;;;26.96;51.40;95431.16;5042256;28;20241;-79
2023/09/15 10:47:20;;;;;;;14.45;9.05;;;;;;;26.82;50.03;95433.72;5045610;28;20252;-79
2023/09/15 10:49:52;;;;;;;14.27;9.55;;;;;;;26.87;51.38;95428.31;5041339;28;20265;-79
2023/09/15 10:52:18;;;;;;;15.07;9.88;;;;;;;26.67;51.54;95432.03;5065970;28;20239;-78
2023/09/15 10:54:43;;;;;;;16.00;9.98;;;;;;;26.86;51.47;95424.03;5067375;28;20324;-77
2023/09/15 10:57:09;;;;;;;16.30;10.25;;;;;;;26.89;51.21;95411.91;5069429;28;20236;-78
2023/09/15 10:59:37;;;;;;;16.33;10.43;;;;;;;26.70;51.96;95422.59;5050686;28;20244;-78
2023/09/15 11:02:03;;;;;;;20.40;10.40;;;;;;;26.69;51.54;95421.00;5063692;28;20231;-79
2023/09/15 11:04:29;;;;;;;16.75;9.95;;;;;;;26.78;50.84;95416.59;5068842;28;20232;-79
2023/09/15 11:06:54;;;;;;;14.57;10.00;;;;;;;26.81;51.11;95413.34;5068994;28;20900;-79
2023/09/15 11:09:20;;;;;;;13.40;9.60;;;;;;;26.94;51.16;95411.84;5058223;28;20315;-78
2023/09/15 11:11:49;;;;;;;17.50;10.18;;;;;;;26.92;50.43;95406.75;5074677;28;20229;-77
2023/09/15 11:14:19;;;;;;;14.18;10.60;;;;;;;27.18;51.53;95404.47;5051733;28;20308;-78